Time;durP1;ratioP1;P1;durP2;ratioP2;P2;SDS_P1;SDS_P2;PMS_P1;PMS_P2;Temp;Humidity;BMP_temperature;BMP_pressure;BME280_temperature;BME280_humidity;BME280_pressure;Samples;Min_cycle;Max_cycle;Signal;HPM_P1;HPM_P2
2022/05/23 00:01:12;;;;;;;4.28;1.65;;;;;;;;;;5052525;28;20035;-85
2022/05/23 00:03:37;;;;;;;2.35;1.55;;;;;;;;;;5070916;28;20029;-85
2022/05/23 00:06:24;;;;;;;2.40;1.65;;;;;;;;;;5055684;28;20016;-87
2022/05/23 00:08:50;;;;;;;3.35;1.67;;;;;;;;;;5080347;28;20028;-86
2022/05/23 00:11:16;;;;;;;6.22;1.67;;;;;;;;;;5068925;28;20111;-85
2022/05/23 00:13:42;;;;;;;3.95;1.55;;;;;;;;;;5072191;28;20066;-83
2022/05/23 00:16:10;;;;;;;1.88;1.35;;;;;;;;;;5057835;28;20071;-84
2022/05/23 00:18:35;;;;;;;2.40;1.67;;;;;;;;;;5076006;28;20453;-85
2022/05/23 00:21:00;;;;;;;2.28;1.65;;;;;;;;;;5068866;28;20618;-87
2022/05/23 00:23:26;;;;;;;3.03;1.70;;;;;;;;;;5056831;28;20035;-85
2022/05/23 00:25:51;;;;;;;2.05;1.55;;;;;;;;;;5067583;28;20063;-85
2022/05/23 00:28:16;;;;;;;2.90;1.60;;;;;;;;;;5078344;28;20036;-83
2022/05/23 00:30:42;;;;;;;2.15;1.48;;;;;;;;;;5079627;28;20111;-84
2022/05/23 00:35:54;;;;;;;3.40;1.80;;;;;;;;;;5083508;28;20023;-83
2022/05/23 00:38:20;;;;;;;2.40;1.70;;;;;;;;;;5086831;28;20028;-82
2022/05/23 00:43:51;;;;;;;2.60;1.70;;;;;;;;;;5062755;28;20452;-82
2022/05/23 00:46:17;;;;;;;3.10;1.67;;;;;;;;;;5087454;28;20027;-86
2022/05/23 00:48:42;;;;;;;2.92;1.70;;;;;;;;;;5078283;28;20019;-84
2022/05/23 00:51:12;;;;;;;2.70;1.80;;;;;;;;;;5077212;28;20104;-85
2022/05/23 00:53:48;;;;;;;3.28;1.60;;;;;;;;;;5082686;28;20020;-84
2022/05/23 00:56:15;;;;;;;2.45;1.88;;;;;;;;;;5074141;28;20037;-83
2022/05/23 00:58:50;;;;;;;2.85;1.80;;;;;;;;;;5072004;28;20103;-85
2022/05/23 01:01:25;;;;;;;5.68;1.95;;;;;;;;;;5082095;28;20028;-84
2022/05/23 01:03:51;;;;;;;4.93;1.80;;;;;;;;;;5074389;28;20041;-84
2022/05/23 01:06:16;;;;;;;1.60;1.40;;;;;;;;;;5074652;28;20047;-84
2022/05/23 01:08:44;;;;;;;3.05;1.90;;;;;;;;;;5086372;28;20024;-84
2022/05/23 01:11:11;;;;;;;2.85;1.55;;;;;;;;;;5077251;28;20028;-83
2022/05/23 01:13:36;;;;;;;1.98;1.67;;;;;;;;;;5073676;28;20021;-83
2022/05/23 01:16:02;;;;;;;2.22;1.90;;;;;;;;;;5073510;28;20040;-85
2022/05/23 01:18:28;;;;;;;2.72;1.60;;;;;;;;;;5083893;28;20069;-83
2022/05/23 01:20:57;;;;;;;3.10;2.10;;;;;;;;;;5086283;28;20095;-84
2022/05/23 01:23:22;;;;;;;3.22;1.85;;;;;;;;;;5086263;28;20030;-83
2022/05/23 01:25:48;;;;;;;4.00;2.17;;;;;;;;;;5082403;28;20016;-81
2022/05/23 01:28:14;;;;;;;4.72;1.70;;;;;;;;;;5089666;28;20020;-84
2022/05/23 01:30:41;;;;;;;3.63;2.20;;;;;;;;;;5060127;28;20496;-85
2022/05/23 01:33:09;;;;;;;5.85;3.45;;;;;;;;;;5079308;28;20023;-82
2022/05/23 01:35:35;;;;;;;9.10;2.03;;;;;;;;;;5077187;28;20032;-81
2022/05/23 01:38:01;;;;;;;2.63;2.10;;;;;;;;;;5083502;28;20416;-83
2022/05/23 01:40:27;;;;;;;2.42;1.98;;;;;;;;;;5079220;28;20542;-83
2022/05/23 01:42:53;;;;;;;6.55;2.05;;;;;;;;;;5083730;28;20017;-82
2022/05/23 01:45:22;;;;;;;2.60;1.75;;;;;;;;;;5076155;28;20025;-84
2022/05/23 01:47:48;;;;;;;3.00;2.05;;;;;;;;;;5080627;28;20027;-81
2022/05/23 01:50:14;;;;;;;3.97;2.30;;;;;;;;;;5080398;28;20520;-83
2022/05/23 01:52:40;;;;;;;2.80;2.17;;;;;;;;;;5076373;28;20138;-84
2022/05/23 01:55:05;;;;;;;2.00;1.77;;;;;;;;;;5076943;28;20040;-84
2022/05/23 01:57:32;;;;;;;2.85;2.30;;;;;;;;;;5078093;28;20545;-85
2022/05/23 02:02:44;;;;;;;4.60;2.13;;;;;;;;;;5076222;28;20055;-84
2022/05/23 02:05:10;;;;;;;1.75;1.65;;;;;;;;;;5077301;28;20029;-82
2022/05/23 02:07:35;;;;;;;4.55;2.20;;;;;;;;;;5080737;28;20393;-84
2022/05/23 02:10:01;;;;;;;3.10;1.83;;;;;;;;;;5077573;28;20072;-84
2022/05/23 02:12:26;;;;;;;2.83;2.17;;;;;;;;;;5081756;28;20016;-84
2022/05/23 02:14:52;;;;;;;4.32;2.08;;;;;;;;;;5077793;28;20020;-86
2022/05/23 02:17:17;;;;;;;4.72;2.45;;;;;;;;;;5076611;28;20157;-84
2022/05/23 02:19:43;;;;;;;6.18;2.38;;;;;;;;;;5086557;28;20012;-83
2022/05/23 02:22:08;;;;;;;4.70;2.30;;;;;;;;;;5085291;28;20100;-84
2022/05/23 02:24:34;;;;;;;2.47;2.15;;;;;;;;;;5085636;28;20178;-85
2022/05/23 02:26:59;;;;;;;3.50;2.17;;;;;;;;;;5097044;28;20028;-83
2022/05/23 02:29:26;;;;;;;4.00;2.60;;;;;;;;;;5078703;28;20039;-84
2022/05/23 02:31:51;;;;;;;6.07;2.63;;;;;;;;;;5061177;28;20537;-85
2022/05/23 02:34:18;;;;;;;4.38;2.20;;;;;;;;;;5091044;28;20043;-84
2022/05/23 02:36:45;;;;;;;4.18;2.15;;;;;;;;;;5106808;28;20024;-84
2022/05/23 02:39:11;;;;;;;4.95;2.30;;;;;;;;;;5089592;28;20029;-85
2022/05/23 02:41:37;;;;;;;3.38;2.13;;;;;;;;;;5070795;28;20043;-85
2022/05/23 02:44:02;;;;;;;2.63;2.20;;;;;;;;;;5082660;28;21211;-85
2022/05/23 02:46:28;;;;;;;5.03;2.20;;;;;;;;;;5097213;28;20110;-85
2022/05/23 02:48:55;;;;;;;6.40;2.63;;;;;;;;;;5084510;28;20460;-85
2022/05/23 02:51:20;;;;;;;6.03;2.70;;;;;;;;;;5077959;28;20032;-83
2022/05/23 02:53:45;;;;;;;2.58;2.00;;;;;;;;;;5076841;28;20390;-85
2022/05/23 02:56:11;;;;;;;7.05;2.50;;;;;;;;;;5087161;28;20021;-82
2022/05/23 02:58:36;;;;;;;4.18;2.28;;;;;;;;;;5071657;28;20045;-85
2022/05/23 03:01:01;;;;;;;5.90;2.47;;;;;;;;;;5082394;28;20027;-84
2022/05/23 03:03:27;;;;;;;3.47;2.25;;;;;;;;;;5065125;28;20378;-84
2022/05/23 03:05:53;;;;;;;4.00;2.35;;;;;;;;;;5079470;28;20016;-83
2022/05/23 03:08:21;;;;;;;7.40;2.33;;;;;;;;;;5080710;28;20103;-82
2022/05/23 03:10:48;;;;;;;3.83;2.20;;;;;;;;;;5079790;28;20474;-82
2022/05/23 03:13:13;;;;;;;3.65;2.20;;;;;;;;;;5090302;28;20059;-84
2022/05/23 03:15:39;;;;;;;2.33;2.10;;;;;;;;;;5095491;28;20370;-84
2022/05/23 03:18:04;;;;;;;2.65;1.95;;;;;;;;;;5088873;28;20474;-83
2022/05/23 03:20:30;;;;;;;3.85;2.28;;;;;;;;;;5087610;28;20028;-82
2022/05/23 03:28:24;;;;;;;3.17;2.30;;;;;;;;;;5077548;28;20090;-83
2022/05/23 03:30:50;;;;;;;5.30;2.00;;;;;;;;;;5060697;28;20390;-82
2022/05/23 03:33:16;;;;;;;5.38;2.00;;;;;;;;;;5077690;28;20105;-83
2022/05/23 03:35:42;;;;;;;6.40;2.15;;;;;;;;;;5073839;28;20017;-83
2022/05/23 03:38:08;;;;;;;5.38;1.80;;;;;;;;;;5050021;28;20043;-82
2022/05/23 03:40:36;;;;;;;5.85;2.10;;;;;;;;;;5055828;28;20030;-83
2022/05/23 03:43:01;;;;;;;3.63;1.90;;;;;;;;;;5072666;28;20025;-83
2022/05/23 03:45:27;;;;;;;3.35;2.05;;;;;;;;;;5070911;28;20024;-83
2022/05/23 03:47:54;;;;;;;6.80;2.33;;;;;;;;;;5078558;28;20062;-83
2022/05/23 03:50:22;;;;;;;3.67;1.90;;;;;;;;;;5054488;28;20592;-83
2022/05/23 03:52:48;;;;;;;2.95;2.10;;;;;;;;;;5070309;28;20024;-84
2022/05/23 03:55:14;;;;;;;3.35;2.13;;;;;;;;;;5057305;28;20043;-83
2022/05/23 03:57:40;;;;;;;1.90;1.70;;;;;;;;;;5078378;28;20085;-82
2022/05/23 04:00:08;;;;;;;3.17;1.92;;;;;;;;;;5078753;28;20024;-84
2022/05/23 04:02:34;;;;;;;2.22;1.80;;;;;;;;;;5073468;28;20499;-84
2022/05/23 04:05:00;;;;;;;4.82;1.85;;;;;;;;;;5067508;28;20702;-85
2022/05/23 04:07:26;;;;;;;4.78;2.03;;;;;;;;;;5054738;28;20048;-83
2022/05/23 04:09:52;;;;;;;8.95;2.35;;;;;;;;;;5067048;28;20032;-83
2022/05/23 04:12:17;;;;;;;4.22;2.22;;;;;;;;;;5073593;28;20040;-81
2022/05/23 04:14:43;;;;;;;3.40;2.20;;;;;;;;;;5078157;28;20438;-82
2022/05/23 04:17:09;;;;;;;6.45;2.30;;;;;;;;;;5061579;28;20032;-83
2022/05/23 04:19:35;;;;;;;5.75;2.90;;;;;;;;;;5071464;28;20635;-82
2022/05/23 04:22:00;;;;;;;3.05;2.10;;;;;;;;;;5071775;28;20024;-84
2022/05/23 04:24:26;;;;;;;4.40;2.17;;;;;;;;;;5073179;28;20025;-83
2022/05/23 04:26:53;;;;;;;7.78;2.65;;;;;;;;;;5074705;28;20095;-84
2022/05/23 04:29:18;;;;;;;5.75;2.17;;;;;;;;;;5067495;28;20028;-82
2022/05/23 04:31:43;;;;;;;5.63;2.30;;;;;;;;;;5073304;28;20055;-86
2022/05/23 04:36:53;;;;;;;6.68;2.20;;;;;;;;;;5082662;28;20031;-87
2022/05/23 04:39:19;;;;;;;5.50;2.53;;;;;;;;;;5068722;28;20028;-87
2022/05/23 04:41:44;;;;;;;5.35;2.30;;;;;;;;;;5075162;28;20157;-86
2022/05/23 04:44:10;;;;;;;3.88;2.47;;;;;;;;;;5077047;28;20043;-86
2022/05/23 04:46:35;;;;;;;5.47;2.70;;;;;;;;;;5094307;28;20032;-86
2022/05/23 04:51:45;;;;;;;3.80;2.28;;;;;;;;;;5074509;28;20035;-85
2022/05/23 04:54:11;;;;;;;8.35;2.60;;;;;;;;;;5076642;28;20025;-88
2022/05/23 04:56:39;;;;;;;8.68;2.83;;;;;;;;;;5055113;28;20027;-86
2022/05/23 04:59:05;;;;;;;12.05;2.55;;;;;;;;;;5056765;28;20028;-86
2022/05/23 05:01:30;;;;;;;6.28;2.83;;;;;;;;;;5053532;28;20082;-86
2022/05/23 05:03:57;;;;;;;6.70;2.92;;;;;;;;;;5074980;28;20045;-86
2022/05/23 05:06:24;;;;;;;3.30;2.63;;;;;;;;;;5049650;28;20032;-86
2022/05/23 05:08:50;;;;;;;4.75;3.03;;;;;;;;;;5084335;28;20021;-86
2022/05/23 05:11:16;;;;;;;4.45;2.90;;;;;;;;;;5074598;28;20032;-88
2022/05/23 05:13:43;;;;;;;6.72;2.90;;;;;;;;;;5077470;28;20024;-84
2022/05/23 05:16:08;;;;;;;7.07;2.65;;;;;;;;;;5054718;28;20479;-86
2022/05/23 05:18:35;;;;;;;6.65;3.10;;;;;;;;;;5074838;28;20024;-87
2022/05/23 05:21:05;;;;;;;3.33;2.80;;;;;;;;;;5055762;28;20056;-87
2022/05/23 05:23:31;;;;;;;6.38;2.33;;;;;;;;;;5073794;28;20085;-86
2022/05/23 05:25:56;;;;;;;5.63;2.55;;;;;;;;;;5056424;28;20444;-85
2022/05/23 05:28:21;;;;;;;5.75;3.08;;;;;;;;;;5082334;28;20115;-85
2022/05/23 05:30:53;;;;;;;5.53;3.20;;;;;;;;;;5072158;28;20052;-85
2022/05/23 05:33:22;;;;;;;4.57;3.08;;;;;;;;;;5074082;28;20076;-87
2022/05/23 05:35:59;;;;;;;5.55;2.70;;;;;;;;;;5080344;28;20036;-86
2022/05/23 05:38:43;;;;;;;5.32;2.63;;;;;;;;;;5086263;28;20498;-86
2022/05/23 05:41:13;;;;;;;3.90;2.83;;;;;;;;;;5076696;28;20039;-86
2022/05/23 05:43:49;;;;;;;9.57;3.15;;;;;;;;;;5059608;28;20033;-88
2022/05/23 05:46:23;;;;;;;2.50;2.30;;;;;;;;;;5076629;28;20027;-86
2022/05/23 05:48:50;;;;;;;6.72;2.92;;;;;;;;;;5069840;28;20027;-86
2022/05/23 05:51:20;;;;;;;5.75;2.88;;;;;;;;;;5071715;28;20024;-87
2022/05/23 05:53:45;;;;;;;7.05;3.05;;;;;;;;;;5073395;28;20016;-86
2022/05/23 05:56:11;;;;;;;5.00;2.55;;;;;;;;;;5090797;28;20035;-85
2022/05/23 05:58:37;;;;;;;7.50;2.88;;;;;;;;;;5086039;28;20024;-86
2022/05/23 06:01:03;;;;;;;5.65;3.05;;;;;;;;;;5078686;28;20091;-84
2022/05/23 06:03:29;;;;;;;4.45;3.08;;;;;;;;;;5075907;28;20493;-86
2022/05/23 06:11:25;;;;;;;5.88;2.67;;;;;;;;;;5076502;28;20473;-85
2022/05/23 06:13:53;;;;;;;7.10;3.25;;;;;;;;;;5078265;28;20020;-85
2022/05/23 06:16:19;;;;;;;5.18;3.38;;;;;;;;;;5078006;28;20033;-86
2022/05/23 06:18:45;;;;;;;4.75;3.25;;;;;;;;;;5087392;28;20026;-85
2022/05/23 06:21:10;;;;;;;6.13;3.17;;;;;;;;;;5062888;28;20028;-85
2022/05/23 06:23:36;;;;;;;5.38;3.13;;;;;;;;;;5077927;28;20035;-85
2022/05/23 06:26:02;;;;;;;5.65;3.30;;;;;;;;;;5078355;28;20059;-85
2022/05/23 06:28:28;;;;;;;5.03;2.95;;;;;;;;;;5059402;28;20028;-86
2022/05/23 06:30:54;;;;;;;6.13;3.20;;;;;;;;;;5076114;28;20024;-85
2022/05/23 06:33:20;;;;;;;5.20;2.88;;;;;;;;;;5075754;28;20020;-85
2022/05/23 06:35:45;;;;;;;4.13;3.08;;;;;;;;;;5065004;28;20432;-85
2022/05/23 06:38:10;;;;;;;5.82;2.78;;;;;;;;;;5077291;28;20432;-84
2022/05/23 06:40:36;;;;;;;3.53;2.72;;;;;;;;;;5083522;28;20039;-85
2022/05/23 06:43:01;;;;;;;4.97;2.90;;;;;;;;;;5073919;28;20589;-86
2022/05/23 06:45:26;;;;;;;4.38;2.92;;;;;;;;;;5086058;28;20482;-86
2022/05/23 06:47:52;;;;;;;4.05;2.67;;;;;;;;;;5082667;28;20013;-86
2022/05/23 06:50:17;;;;;;;5.90;2.90;;;;;;;;;;5079539;28;20028;-85
2022/05/23 06:52:43;;;;;;;4.60;2.75;;;;;;;;;;5060155;28;20031;-86
2022/05/23 06:55:09;;;;;;;5.30;2.65;;;;;;;;;;5060357;28;20046;-85
2022/05/23 06:57:34;;;;;;;7.15;3.05;;;;;;;;;;5062708;28;20024;-87
2022/05/23 07:00:00;;;;;;;4.38;2.72;;;;;;;;;;5084561;28;20024;-86
2022/05/23 07:02:26;;;;;;;6.07;3.00;;;;;;;;;;5063727;28;20040;-86
2022/05/23 07:13:03;;;;;;;5.53;2.47;;;;;;;;;;5076677;28;20146;-85
2022/05/23 07:15:35;;;;;;;6.00;3.15;;;;;;;;;;5058636;28;20044;-83
2022/05/23 07:18:01;;;;;;;4.53;2.58;;;;;;;;;;5073348;28;20027;-85
2022/05/23 07:20:26;;;;;;;5.60;2.67;;;;;;;;;;5075069;28;20037;-83
2022/05/23 07:22:52;;;;;;;4.90;2.83;;;;;;;;;;5058873;28;20050;-85
2022/05/23 07:25:18;;;;;;;4.72;2.60;;;;;;;;;;5078364;28;20028;-82
2022/05/23 07:27:43;;;;;;;6.00;2.60;;;;;;;;;;5077201;28;20058;-82
2022/05/23 07:30:09;;;;;;;5.05;2.40;;;;;;;;;;5077518;28;20124;-82
2022/05/23 07:32:34;;;;;;;4.75;2.72;;;;;;;;;;5055580;28;20028;-82
2022/05/23 07:35:00;;;;;;;7.25;2.95;;;;;;;;;;5078760;28;20084;-83
2022/05/23 07:37:27;;;;;;;8.88;2.55;;;;;;;;;;5078417;28;20022;-82
2022/05/23 07:39:54;;;;;;;4.15;2.53;;;;;;;;;;5062632;28;20052;-83
2022/05/23 07:42:19;;;;;;;5.70;2.47;;;;;;;;;;5079227;28;20080;-86
2022/05/23 07:44:45;;;;;;;3.88;2.03;;;;;;;;;;5077664;28;20044;-85
2022/05/23 07:47:11;;;;;;;6.38;2.50;;;;;;;;;;5040037;28;20048;-84
2022/05/23 07:49:36;;;;;;;5.43;2.35;;;;;;;;;;5078031;28;20146;-84
2022/05/23 07:52:02;;;;;;;3.05;2.20;;;;;;;;;;5058724;28;20042;-83
2022/05/23 08:02:41;;;;;;;6.20;2.50;;;;;;;;;;5075301;28;20169;-86
2022/05/23 08:05:08;;;;;;;4.57;2.25;;;;;;;;;;5073404;28;20597;-85
2022/05/23 08:07:33;;;;;;;4.40;2.30;;;;;;;;;;5077615;28;20020;-86
2022/05/23 08:10:00;;;;;;;5.75;3.40;;;;;;;;;;5060275;28;20096;-83
2022/05/23 08:12:27;;;;;;;3.15;2.17;;;;;;;;;;5080118;28;20458;-87
2022/05/23 08:14:52;;;;;;;5.60;2.20;;;;;;;;;;5076975;28;20042;-84
2022/05/23 08:17:18;;;;;;;3.47;2.22;;;;;;;;;;5078802;28;20024;-85
2022/05/23 08:19:44;;;;;;;7.40;2.33;;;;;;;;;;5079721;28;20020;-83
2022/05/23 08:22:10;;;;;;;4.50;2.13;;;;;;;;;;5061340;28;20033;-84
2022/05/23 08:24:35;;;;;;;4.55;1.98;;;;;;;;;;5060050;28;20029;-83
2022/05/23 08:27:01;;;;;;;6.97;2.10;;;;;;;;;;5075122;28;20086;-85
2022/05/23 08:29:27;;;;;;;4.35;2.03;;;;;;;;;;5063080;28;20074;-84
2022/05/23 08:31:53;;;;;;;5.28;2.03;;;;;;;;;;5071178;28;20031;-81
2022/05/23 08:34:18;;;;;;;5.63;2.35;;;;;;;;;;5080356;28;20048;-85
2022/05/23 08:36:44;;;;;;;5.45;2.38;;;;;;;;;;5081632;28;20020;-83
2022/05/23 08:39:10;;;;;;;3.28;2.22;;;;;;;;;;5063284;28;20027;-84
2022/05/23 08:41:39;;;;;;;3.85;1.77;;;;;;;;;;5076005;28;20043;-86
2022/05/23 08:44:39;;;;;;;4.13;2.42;;;;;;;;;;5075893;28;20039;-83
2022/05/23 08:47:08;;;;;;;5.80;2.20;;;;;;;;;;5067298;28;20043;-81
2022/05/23 08:50:01;;;;;;;4.10;2.17;;;;;;;;;;5073126;28;20026;-83
2022/05/23 08:52:45;;;;;;;4.30;2.30;;;;;;;;;;5063873;28;20026;-85
2022/05/23 08:55:26;;;;;;;3.92;2.20;;;;;;;;;;5070259;28;20020;-82
2022/05/23 08:58:18;;;;;;;6.15;2.40;;;;;;;;;;5069421;28;20024;-86
2022/05/23 09:00:46;;;;;;;6.57;3.37;;;;;;;;;;5067712;28;20020;-85
2022/05/23 09:03:23;;;;;;;4.07;2.65;;;;;;;;;;5068238;28;20472;-83
2022/05/23 09:06:02;;;;;;;8.90;2.83;;;;;;;;;;5066094;28;20112;-84
2022/05/23 09:08:31;;;;;;;6.68;2.90;;;;;;;;;;5069265;28;20051;-83
2022/05/23 09:11:03;;;;;;;5.63;2.60;;;;;;;;;;5067716;28;20039;-83
2022/05/23 09:13:32;;;;;;;;;;;;;;;;;;5070169;28;20060;-83
2022/05/23 09:16:04;;;;;;;4.47;2.63;;;;;;;;;;5069212;28;19944;-83
2022/05/23 09:18:55;;;;;;;4.22;2.47;;;;;;;;;;5067605;28;20068;-84
2022/05/23 09:22:12;;;;;;;3.67;2.50;;;;;;;;;;5066312;28;20140;-83
2022/05/23 09:24:07;;;;;;;3.30;2.15;;;;;;;;;;5066239;28;20036;-82
2022/05/23 09:26:32;;;;;;;7.43;2.53;;;;;;;;;;5069437;28;20013;-82
2022/05/23 09:28:57;;;;;;;5.47;2.60;;;;;;;;;;5069073;28;20025;-86
2022/05/23 09:31:52;;;;;;;5.88;2.30;;;;;;;;;;5050460;28;20086;-84
2022/05/23 09:34:34;;;;;;;4.68;2.70;;;;;;;;;;5067640;28;20094;-84
2022/05/23 09:37:03;;;;;;;10.65;2.58;;;;;;;;;;5063931;28;20035;-83
2022/05/23 09:39:30;;;;;;;6.15;2.65;;;;;;;;;;5069151;28;20023;-84
2022/05/23 09:48:07;;;;;;;6.35;2.88;;;;;;;;;;5078831;28;20488;-82
2022/05/23 09:50:39;;;;;;;7.00;2.75;;;;;;;;;;5075820;28;20020;-82
2022/05/23 09:53:14;;;;;;;12.25;2.97;;;;;;;;;;5076288;28;20020;-82
2022/05/23 09:55:40;;;;;;;8.15;2.95;;;;;;;;;;5072446;28;20032;-83
2022/05/23 09:58:08;;;;;;;4.18;2.50;;;;;;;;;;5081744;28;20024;-83
2022/05/23 10:00:37;;;;;;;7.07;2.33;;;;;;;;;;5077592;28;20036;-84
2022/05/23 10:03:13;;;;;;;3.30;2.17;;;;;;;;;;5075844;28;20020;-82
2022/05/23 10:05:46;;;;;;;3.13;1.98;;;;;;;;;;5075762;28;20056;-82
2022/05/23 10:08:13;;;;;;;5.05;2.33;;;;;;;;;;5083931;28;20027;-83
2022/05/23 10:10:52;;;;;;;3.72;2.20;;;;;;;;;;5075441;28;20271;-84
2022/05/23 10:13:25;;;;;;;8.50;2.33;;;;;;;;;;5072624;28;20082;-82
2022/05/23 10:15:57;;;;;;;5.10;2.42;;;;;;;;;;5057372;28;20021;-85
2022/05/23 10:18:24;;;;;;;2.42;2.20;;;;;;;;;;5059693;28;20177;-85
2022/05/23 10:20:51;;;;;;;5.88;2.00;;;;;;;;;;5071899;28;20035;-84
2022/05/23 10:23:22;;;;;;;5.85;2.20;;;;;;;;;;5077023;28;20066;-85
2022/05/23 10:26:00;;;;;;;3.20;1.95;;;;;;;;;;5056787;28;20016;-83
2022/05/23 10:28:55;;;;;;;4.88;2.50;;;;;;;;;;5066679;28;20028;-84
2022/05/23 10:31:35;;;;;;;4.22;2.22;;;;;;;;;;5064776;28;20047;-84
2022/05/23 10:34:39;;;;;;;3.38;2.15;;;;;;;;;;5076439;28;20044;-83
2022/05/23 10:37:08;;;;;;;5.93;2.03;;;;;;;;;;5069430;28;20036;-85
2022/05/23 10:42:28;;;;;;;7.95;2.20;;;;;;;;;;5078591;28;20094;-83
2022/05/23 10:45:09;;;;;;;3.08;2.22;;;;;;;;;;5066067;28;20021;-81
2022/05/23 10:48:02;;;;;;;8.03;2.57;;;;;;;;;;5086624;28;20025;-84
2022/05/23 10:50:54;;;;;;;3.38;2.17;;;;;;;;;;5083095;28;20024;-82
2022/05/23 10:53:38;;;;;;;;;;;;;;;;;;5069391;28;20024;-84
2022/05/23 10:56:20;;;;;;;4.05;2.03;;;;;;;;;;5082648;28;19918;-83
2022/05/23 10:58:48;;;;;;;6.70;2.50;;;;;;;;;;5091558;28;20035;-83
2022/05/23 11:01:44;;;;;;;7.25;3.45;;;;;;;;;;5070538;28;20500;-84
2022/05/23 11:04:12;;;;;;;6.70;3.75;;;;;;;;;;5081606;28;20028;-85
2022/05/23 11:06:59;;;;;;;6.55;3.30;;;;;;;;;;5049610;28;20093;-85
2022/05/23 11:10:01;;;;;;;6.80;3.00;;;;;;;;;;5084307;28;20028;-83
2022/05/23 11:12:51;;;;;;;8.80;2.90;;;;;;;;;;5077200;28;20510;-83
2022/05/23 11:15:27;;;;;;;8.93;2.88;;;;;;;;;;5074706;28;20060;-86
2022/05/23 11:17:58;;;;;;;20.63;5.07;;;;;;;;;;5062766;28;20506;-85
2022/05/23 11:20:34;;;;;;;11.35;2.80;;;;;;;;;;5045269;28;20032;-85
2022/05/23 11:23:14;;;;;;;5.40;2.80;;;;;;;;;;5044326;28;20453;-84
2022/05/23 11:25:45;;;;;;;4.15;2.72;;;;;;;;;;5048067;28;20041;-85
2022/05/23 11:34:21;;;;;;;7.47;2.92;;;;;;;;;;5076213;28;20235;-84
2022/05/23 11:36:57;;;;;;;7.45;3.10;;;;;;;;;;5070929;28;20028;-84
2022/05/23 11:39:46;;;;;;;9.55;3.85;;;;;;;;;;5074704;28;20097;-89
2022/05/23 11:42:27;;;;;;;8.15;3.35;;;;;;;;;;5053487;28;20067;-86
2022/05/23 11:44:56;;;;;;;8.73;3.80;;;;;;;;;;5049404;28;20492;-87
2022/05/23 11:47:25;;;;;;;10.45;3.33;;;;;;;;;;5056524;28;20036;-85
2022/05/23 11:49:59;;;;;;;7.40;3.38;;;;;;;;;;5058699;28;20029;-87
2022/05/23 11:52:30;;;;;;;8.65;3.53;;;;;;;;;;5056166;28;20031;-85
2022/05/23 11:54:55;;;;;;;9.27;3.60;;;;;;;;;;5058179;28;20039;-85
2022/05/23 11:57:33;;;;;;;10.57;3.35;;;;;;;;;;5050597;28;20421;-85
2022/05/23 12:00:03;;;;;;;6.95;3.15;;;;;;;;;;5079541;28;20108;-84
2022/05/23 12:02:29;;;;;;;5.75;2.75;;;;;;;;;;5056878;28;20452;-87
2022/05/23 12:04:58;;;;;;;4.50;2.55;;;;;;;;;;5073695;28;20032;-87
2022/05/23 12:07:37;;;;;;;8.07;2.50;;;;;;;;;;5068042;28;20075;-88
2022/05/23 12:10:21;;;;;;;5.20;2.42;;;;;;;;;;5057146;28;20533;-84
2022/05/23 12:12:51;;;;;;;7.15;2.50;;;;;;;;;;5067622;28;20013;-85
2022/05/23 12:15:42;;;;;;;8.43;2.60;;;;;;;;;;5070709;28;20032;-85
2022/05/23 12:18:26;;;;;;;6.90;2.50;;;;;;;;;;5076057;28;20023;-86
2022/05/23 12:21:06;;;;;;;11.63;2.95;;;;;;;;;;5065653;28;20127;-88
2022/05/23 12:23:39;;;;;;;5.20;2.35;;;;;;;;;;5057392;28;20025;-86
2022/05/23 12:26:09;;;;;;;9.85;2.85;;;;;;;;;;5052125;28;20027;-87
2022/05/23 12:28:57;;;;;;;6.07;3.03;;;;;;;;;;5077412;28;20032;-83
2022/05/23 12:31:37;;;;;;;9.32;2.92;;;;;;;;;;5056965;28;20457;-87
2022/05/23 12:34:02;;;;;;;7.70;3.42;;;;;;;;;;5082827;28;20020;-87
2022/05/23 12:36:34;;;;;;;8.40;3.38;;;;;;;;;;5060055;28;20025;-85
2022/05/23 12:38:59;;;;;;;14.40;3.80;;;;;;;;;;5060106;28;20077;-84
2022/05/23 12:41:37;;;;;;;6.97;3.30;;;;;;;;;;5061760;28;20074;-86
2022/05/23 12:44:23;;;;;;;5.15;2.95;;;;;;;;;;5076549;28;20020;-86
2022/05/23 12:47:04;;;;;;;3.63;2.63;;;;;;;;;;5069319;28;20028;-86
2022/05/23 12:49:43;;;;;;;6.65;2.88;;;;;;;;;;5067531;28;20429;-87
2022/05/23 12:52:17;;;;;;;6.15;2.72;;;;;;;;;;5045232;28;20025;-85
2022/05/23 12:55:01;;;;;;;9.00;3.03;;;;;;;;;;5050104;28;20024;-85
2022/05/23 12:57:56;;;;;;;5.13;3.00;;;;;;;;;;5078018;28;20029;-85
2022/05/23 13:00:29;;;;;;;4.20;2.58;;;;;;;;;;5058643;28;20028;-88
2022/05/23 13:03:23;;;;;;;8.98;2.50;;;;;;;;;;5073649;28;20021;-87
2022/05/23 13:06:16;;;;;;;13.40;3.38;;;;;;;;;;5049279;28;20040;-85
2022/05/23 13:09:09;;;;;;;8.05;2.50;;;;;;;;;;5058738;28;20042;-87
2022/05/23 13:11:39;;;;;;;;;;;;;;;;;;5057714;28;20032;-85
2022/05/23 13:14:16;;;;;;;;;;;;;;;;;;;;;
2022/05/23 13:16:55;;;;;;;5.07;2.15;;;;;;;;;;5070638;28;20092;-85
2022/05/23 13:22:10;;;;;;;8.18;2.60;;;;;;;;;;5082072;28;20031;-88
2022/05/23 13:24:55;;;;;;;6.50;2.58;;;;;;;;;;5082903;28;20033;-85
2022/05/23 13:27:37;;;;;;;8.68;2.38;;;;;;;;;;5083199;28;20192;-85
2022/05/23 13:30:17;;;;;;;;;;;;;;;;;;5082176;28;20107;-84
2022/05/23 13:33:17;;;;;;;10.45;2.50;;;;;;;;;;5081012;28;19938;-88
2022/05/23 13:35:46;;;;;;;4.43;2.20;;;;;;;;;;5077017;28;20064;-84
2022/05/23 13:38:21;;;;;;;6.40;3.13;;;;;;;;;;5067549;28;20509;-87
2022/05/23 13:40:52;;;;;;;7.35;3.00;;;;;;;;;;5077605;28;20071;-84
2022/05/23 13:43:31;;;;;;;6.10;2.20;;;;;;;;;;5081247;28;20029;-84
2022/05/23 13:45:59;;;;;;;7.03;2.88;;;;;;;;;;5081804;28;20244;-85
2022/05/23 13:48:46;;;;;;;6.05;2.55;;;;;;;;;;5091270;28;20478;-86
2022/05/23 13:51:19;;;;;;;4.80;2.50;;;;;;;;;;5076418;28;20033;-87
2022/05/23 13:53:49;;;;;;;6.85;2.60;;;;;;;;;;5073652;28;20051;-87
2022/05/23 13:56:15;;;;;;;9.38;2.75;;;;;;;;;;5078679;28;20021;-86
2022/05/23 13:58:47;;;;;;;8.77;2.85;;;;;;;;;;5080011;28;20065;-85
2022/05/23 14:01:22;;;;;;;7.32;2.50;;;;;;;;;;5077100;28;20024;-85
2022/05/23 14:04:02;;;;;;;6.38;2.47;;;;;;;;;;5078676;28;20481;-85
2022/05/23 14:06:32;;;;;;;7.25;2.97;;;;;;;;;;5079062;28;20034;-85
2022/05/23 14:09:02;;;;;;;4.93;2.53;;;;;;;;;;5082269;28;20017;-85
2022/05/23 14:11:32;;;;;;;4.28;2.13;;;;;;;;;;5075484;28;20029;-88
2022/05/23 14:14:13;;;;;;;5.85;2.70;;;;;;;;;;5078858;28;20036;-85
2022/05/23 14:16:39;;;;;;;7.95;2.30;;;;;;;;;;5077607;28;20344;-86
2022/05/23 14:19:23;;;;;;;8.07;2.30;;;;;;;;;;5067329;28;20017;-87
2022/05/23 14:22:03;;;;;;;5.82;2.47;;;;;;;;;;5093209;28;20007;-86
2022/05/23 14:24:29;;;;;;;10.10;2.40;;;;;;;;;;5089346;28;20119;-84
2022/05/23 14:27:26;;;;;;;7.63;2.53;;;;;;;;;;5077869;28;20032;-84
2022/05/23 14:30:14;;;;;;;7.53;2.00;;;;;;;;;;5076649;28;20444;-85
2022/05/23 14:32:40;;;;;;;5.57;2.03;;;;;;;;;;5076569;28;20027;-91
2022/05/23 14:35:16;;;;;;;6.07;2.60;;;;;;;;;;5076907;28;20074;-85
2022/05/23 14:37:41;;;;;;;4.88;2.13;;;;;;;;;;5050894;28;20020;-85
2022/05/23 14:40:11;;;;;;;8.80;2.55;;;;;;;;;;5075974;28;20103;-87
2022/05/23 14:42:41;;;;;;;9.23;2.08;;;;;;;;;;5076897;28;20051;-89
2022/05/23 14:45:26;;;;;;;3.95;2.03;;;;;;;;;;5083051;28;20020;-85
2022/05/23 14:48:17;;;;;;;4.53;2.45;;;;;;;;;;5074973;28;20024;-86
2022/05/23 14:50:51;;;;;;;9.00;2.05;;;;;;;;;;5065736;28;20417;-87
2022/05/23 14:56:34;;;;;;;6.38;1.90;;;;;;;;;;5043968;28;20028;-85
2022/05/23 15:01:45;;;;;;;4.15;1.92;;;;;;;;;;5066915;28;20046;-84
2022/05/23 15:04:25;;;;;;;4.53;2.20;;;;;;;;;;5074415;28;20024;-84
2022/05/23 15:06:52;;;;;;;5.50;2.13;;;;;;;;;;5057406;28;20034;-85
2022/05/23 15:09:17;;;;;;;4.93;2.00;;;;;;;;;;5075706;28;20020;-86
2022/05/23 15:11:44;;;;;;;6.43;2.00;;;;;;;;;;5074063;28;20161;-86
2022/05/23 15:14:12;;;;;;;7.80;2.03;;;;;;;;;;5075659;28;20036;-86
2022/05/23 15:16:37;;;;;;;6.68;2.47;;;;;;;;;;5077080;28;20032;-84
2022/05/23 15:19:04;;;;;;;4.88;2.28;;;;;;;;;;5076627;28;20020;-84
2022/05/23 15:21:30;;;;;;;6.75;2.25;;;;;;;;;;5078409;28;20104;-84
2022/05/23 15:23:56;;;;;;;6.88;2.05;;;;;;;;;;5059862;28;20048;-83
2022/05/23 15:26:25;;;;;;;5.18;1.83;;;;;;;;;;5058366;28;20527;-85
2022/05/23 15:28:52;;;;;;;7.25;2.55;;;;;;;;;;5077720;28;20036;-85
2022/05/23 15:31:19;;;;;;;5.53;2.17;;;;;;;;;;5085724;28;20040;-85
2022/05/23 15:33:45;;;;;;;9.80;2.30;;;;;;;;;;5082606;28;20017;-84
2022/05/23 15:36:10;;;;;;;5.95;2.00;;;;;;;;;;5059995;28;20125;-84
2022/05/23 15:38:36;;;;;;;9.00;2.40;;;;;;;;;;5071951;28;20020;-86
2022/05/23 15:41:02;;;;;;;6.15;2.42;;;;;;;;;;5080005;28;20524;-86
2022/05/23 15:43:30;;;;;;;4.43;2.00;;;;;;;;;;5084147;28;20479;-87
2022/05/23 15:45:55;;;;;;;13.30;2.38;;;;;;;;;;5091368;28;20047;-86
2022/05/23 15:48:23;;;;;;;7.10;2.83;;;;;;;;;;5094987;28;20470;-85
2022/05/23 15:50:49;;;;;;;4.13;1.80;;;;;;;;;;5067536;28;20028;-83
2022/05/23 15:53:15;;;;;;;9.27;2.28;;;;;;;;;;5077559;28;20017;-87
2022/05/23 15:55:44;;;;;;;6.68;2.33;;;;;;;;;;5059854;28;20039;-87
2022/05/23 15:58:11;;;;;;;3.83;1.95;;;;;;;;;;5073933;28;20111;-87
2022/05/23 16:00:37;;;;;;;4.75;1.90;;;;;;;;;;5075530;28;20056;-85
2022/05/23 16:03:08;;;;;;;6.78;2.38;;;;;;;;;;5076687;28;20031;-87
2022/05/23 16:05:35;;;;;;;3.73;1.87;;;;;;;;;;5082896;28;20046;-87
2022/05/23 16:08:00;;;;;;;6.20;2.33;;;;;;;;;;5082339;28;20027;-86
2022/05/23 16:10:26;;;;;;;4.38;2.35;;;;;;;;;;5060308;28;20029;-86